createdAt,value
2022-09-01T00:00:36.244Z,76.00
2022-09-01T00:01:36.206Z,75.34
2022-09-01T00:02:36.247Z,75.60
2022-09-01T00:03:36.133Z,74.59
2022-09-01T00:04:36.215Z,75.50
2022-09-01T00:05:36.055Z,74.19
2022-09-01T00:06:36.017Z,74.19
2022-09-01T00:07:36.005Z,75.30
2022-09-01T00:08:35.941Z,75.87
2022-09-01T00:09:35.907Z,75.50
2022-09-01T00:10:35.870Z,76.51
2022-09-01T00:11:35.831Z,76.40
2022-09-01T00:12:35.790Z,75.60
2022-09-01T00:13:35.766Z,77.01
2022-09-01T00:14:38.539Z,76.44
2022-09-01T00:15:35.758Z,76.75
2022-09-01T00:16:35.640Z,76.28
2022-09-01T00:17:35.609Z,75.84
2022-09-01T00:18:35.566Z,76.64
2022-09-01T00:19:35.532Z,75.74
2022-09-01T00:20:35.498Z,75.34
2022-09-01T00:21:35.477Z,76.54
2022-09-01T00:22:35.416Z,75.80
2022-09-01T00:23:35.387Z,75.23
2022-09-01T00:24:35.336Z,76.91
2022-09-01T00:25:35.307Z,76.31
2022-09-01T00:26:35.265Z,75.80
2022-09-01T00:27:35.240Z,75.94
2022-09-01T00:28:35.187Z,77.75
2022-09-01T00:29:35.161Z,76.44
2022-09-01T00:30:35.116Z,76.14
2022-09-01T00:31:35.077Z,78.06
2022-09-01T00:32:35.050Z,77.55
2022-09-01T00:33:35.004Z,78.76
2022-09-01T00:34:34.963Z,77.45
2022-09-01T00:35:37.373Z,77.75
2022-09-01T00:36:34.891Z,76.95
2022-09-01T00:37:34.850Z,77.69
2022-09-01T00:38:34.829Z,76.98
2022-09-01T00:39:34.776Z,76.04
2022-09-01T00:40:34.848Z,77.15
2022-09-01T00:41:34.700Z,78.16
2022-09-01T00:42:34.663Z,78.26
2022-09-01T00:43:34.626Z,79.57
2022-09-01T00:44:34.595Z,77.75
2022-09-01T00:45:34.550Z,76.95
2022-09-01T00:46:35.415Z,77.45
2022-09-01T00:47:34.476Z,78.66
2022-09-01T00:48:34.439Z,78.86
2022-09-01T00:49:34.977Z,77.04
2022-09-01T00:50:34.370Z,77.15
2022-09-01T00:51:34.322Z,77.75
2022-09-01T00:52:34.286Z,76.34
2022-09-01T00:53:34.250Z,78.92
2022-09-01T00:54:34.213Z,77.01
2022-09-01T00:55:34.172Z,76.81
2022-09-01T00:56:34.151Z,78.02
2022-09-01T00:57:34.100Z,77.51
2022-09-01T00:58:34.061Z,77.51
2022-09-01T00:59:34.024Z,78.32
2022-09-01T01:00:33.985Z,78.92
2022-09-01T01:01:33.981Z,78.06
2022-09-01T01:02:33.973Z,78.26
2022-09-01T01:03:33.873Z,79.36
2022-09-01T01:04:33.833Z,77.95
2022-09-01T01:05:33.794Z,77.25
2022-09-01T01:06:33.759Z,76.84
2022-09-01T01:07:33.722Z,76.95
2022-09-01T01:08:33.693Z,75.90
2022-09-01T01:09:33.647Z,76.64
2022-09-01T01:10:33.608Z,75.40
2022-09-01T01:11:33.577Z,74.90
2022-09-01T01:12:33.530Z,74.55
2022-09-01T01:13:33.512Z,74.46
2022-09-01T01:14:33.458Z,76.17
2022-09-01T01:15:33.421Z,75.56
2022-09-01T01:16:33.436Z,76.97
2022-09-01T01:17:33.348Z,76.97
2022-09-01T01:18:33.307Z,76.77
2022-09-01T01:19:37.039Z,74.96
2022-09-01T01:20:33.232Z,76.87
2022-09-01T01:21:33.196Z,76.67
2022-09-01T01:22:33.171Z,76.97
2022-09-01T01:23:33.133Z,75.67
2022-09-01T01:24:33.082Z,74.90
2022-09-01T01:25:33.057Z,75.56
2022-09-01T01:26:33.009Z,74.66
2022-09-01T01:27:32.976Z,73.45
2022-09-01T01:28:32.935Z,75.73
2022-09-01T01:29:32.895Z,74.52
2022-09-01T01:30:32.898Z,74.82
2022-09-01T01:31:32.864Z,75.16
2022-09-01T01:32:32.783Z,75.96
2022-09-01T01:33:32.747Z,76.67
2022-09-01T01:34:32.706Z,77.68
2022-09-01T01:35:32.672Z,78.63
2022-09-01T01:36:32.818Z,77.62
2022-09-01T01:37:32.608Z,76.51
2022-09-01T01:38:32.573Z,78.72
2022-09-01T01:39:32.519Z,79.43
2022-09-01T01:40:32.544Z,79.83
2022-09-01T01:41:32.444Z,79.87
2022-09-01T01:42:32.408Z,80.68
2022-09-01T01:43:32.369Z,80.47
2022-09-01T01:44:32.347Z,80.62
2022-09-01T01:45:32.295Z,80.51
2022-09-01T01:46:32.363Z,80.62
2022-09-01T01:47:32.224Z,80.82
2022-09-01T01:48:32.192Z,82.17
2022-09-01T01:49:32.145Z,81.36
2022-09-01T01:50:32.119Z,81.32
2022-09-01T01:51:32.068Z,81.67
2022-09-01T01:52:32.032Z,82.47
2022-09-01T01:53:31.994Z,83.07
2022-09-01T01:54:31.958Z,83.18
2022-09-01T01:55:31.921Z,83.28
2022-09-01T01:56:31.895Z,82.07
2022-09-01T01:57:31.843Z,83.07
2022-09-01T01:58:31.807Z,82.51
2022-09-01T01:59:31.773Z,82.71
2022-09-01T02:00:31.733Z,82.31
2022-09-01T02:01:31.749Z,84.03
2022-09-01T02:02:31.723Z,82.41
2022-09-01T02:03:31.616Z,83.82
2022-09-01T02:04:31.583Z,83.86
2022-09-01T02:05:31.541Z,84.12
2022-09-01T02:06:31.506Z,84.53
2022-09-01T02:07:32.984Z,83.32
2022-09-01T02:08:31.439Z,83.42
2022-09-01T02:09:31.389Z,84.93
2022-09-01T02:10:31.356Z,85.17
2022-09-01T02:11:31.324Z,85.28
2022-09-01T02:12:31.290Z,84.57
2022-09-01T02:13:31.531Z,84.37
2022-09-01T02:14:31.203Z,84.57
2022-09-01T02:15:31.165Z,84.47
2022-09-01T02:16:31.192Z,84.57
2022-09-01T02:17:31.087Z,83.76
2022-09-01T02:18:31.065Z,84.67
2022-09-01T02:19:31.017Z,83.96
2022-09-01T02:20:30.975Z,83.76
2022-09-01T02:21:30.938Z,83.86
2022-09-01T02:22:30.899Z,84.77
2022-09-01T02:23:30.861Z,85.48
2022-09-01T02:24:30.838Z,85.48
2022-09-01T02:25:30.790Z,85.78
2022-09-01T02:26:30.748Z,85.58
2022-09-01T02:27:30.715Z,85.28
2022-09-01T02:28:30.671Z,85.58
2022-09-01T02:29:30.645Z,85.28
2022-09-01T02:30:30.627Z,85.68
2022-09-01T02:31:30.564Z,84.51
2022-09-01T02:32:30.520Z,85.52
2022-09-01T02:33:30.482Z,85.42
2022-09-01T02:34:30.455Z,84.97
2022-09-01T02:35:30.411Z,85.31
2022-09-01T02:36:30.372Z,82.08
2022-09-01T02:37:30.327Z,84.87
2022-09-01T02:38:30.301Z,84.57
2022-09-01T02:39:30.254Z,84.57
2022-09-01T02:40:30.774Z,83.56
2022-09-01T02:41:30.181Z,84.67
2022-09-01T02:42:30.141Z,84.41
2022-09-01T02:43:30.101Z,84.67
2022-09-01T02:44:30.064Z,84.71
2022-09-01T02:45:30.060Z,83.36
2022-09-01T02:46:30.002Z,84.71
2022-09-01T02:47:29.953Z,82.14
2022-09-01T02:48:29.912Z,83.52
2022-09-01T02:49:30.135Z,83.76
2022-09-01T02:50:29.838Z,83.66
2022-09-01T02:51:29.816Z,82.14
2022-09-01T02:52:29.765Z,82.55
2022-09-01T02:53:29.725Z,82.71
2022-09-01T02:54:29.687Z,80.79
2022-09-01T02:55:29.646Z,79.68
2022-09-01T02:56:29.609Z,80.69
2022-09-01T02:57:29.589Z,81.90
2022-09-01T02:58:29.535Z,82.51
2022-09-01T02:59:29.496Z,80.29
2022-09-01T03:00:29.455Z,79.58
2022-09-01T03:01:29.964Z,80.90
2022-09-01T03:02:29.381Z,78.03
2022-09-01T03:03:29.356Z,79.04
2022-09-01T03:04:29.396Z,78.53
2022-09-01T03:05:29.289Z,80.05
2022-09-01T03:06:29.230Z,80.85
2022-09-01T03:07:29.193Z,79.54
2022-09-01T03:08:29.162Z,80.59
2022-09-01T03:09:29.133Z,80.96
2022-09-01T03:10:29.146Z,79.08
2022-09-01T03:11:29.045Z,77.83
2022-09-01T03:12:29.001Z,78.30
2022-09-01T03:13:28.964Z,79.41
2022-09-01T03:14:28.926Z,79.21
2022-09-01T03:15:28.903Z,79.24
2022-09-01T03:16:28.909Z,79.44
2022-09-01T03:17:28.810Z,80.05
2022-09-01T03:18:28.777Z,81.30
2022-09-01T03:19:28.799Z,78.97
2022-09-01T03:20:28.699Z,78.37
2022-09-01T03:21:28.669Z,78.84
2022-09-01T03:22:28.625Z,78.13
2022-09-01T03:23:28.596Z,80.65
2022-09-01T03:24:28.545Z,78.23
2022-09-01T03:25:28.507Z,78.74
2022-09-01T03:26:28.471Z,79.64
2022-09-01T03:27:28.433Z,80.55
2022-09-01T03:28:28.393Z,80.45
2022-09-01T03:29:28.370Z,77.93
2022-09-01T03:30:28.332Z,78.53
2022-09-01T03:31:30.987Z,78.53
2022-09-01T03:32:28.270Z,78.94
2022-09-01T03:33:28.203Z,79.54
2022-09-01T03:34:28.204Z,79.44
2022-09-01T03:35:28.152Z,79.04
2022-09-01T03:36:28.095Z,79.24
2022-09-01T03:37:28.051Z,78.47
2022-09-01T03:38:28.014Z,78.33
2022-09-01T03:39:27.982Z,80.29
2022-09-01T03:40:27.996Z,80.59
2022-09-01T03:41:27.909Z,78.88
2022-09-01T03:42:27.862Z,80.69
2022-09-01T03:43:34.444Z,80.79
2022-09-01T03:44:27.788Z,81.40
2022-09-01T03:45:27.795Z,80.73
2022-09-01T03:46:27.723Z,81.40
2022-09-01T03:47:27.682Z,81.54
2022-09-01T03:48:27.636Z,83.05
2022-09-01T03:49:27.595Z,81.13
2022-09-01T03:50:27.559Z,80.83
2022-09-01T03:51:27.522Z,81.13
2022-09-01T03:52:27.487Z,80.73
2022-09-01T03:53:27.459Z,81.44
2022-09-01T03:54:27.407Z,81.74
2022-09-01T03:55:27.367Z,82.14
2022-09-01T03:56:27.358Z,83.15
2022-09-01T03:57:27.298Z,81.74
2022-09-01T03:58:27.253Z,83.70
2022-09-01T03:59:27.244Z,82.49
2022-09-01T04:00:27.178Z,81.78
2022-09-01T04:01:27.222Z,83.40
2022-09-01T04:02:27.186Z,83.19
2022-09-01T04:03:28.816Z,82.99
2022-09-01T04:04:27.031Z,82.08
2022-09-01T04:05:27.001Z,81.48
2022-09-01T04:06:26.962Z,82.99
2022-09-01T04:07:26.913Z,83.40
2022-09-01T04:08:26.876Z,84.20
2022-09-01T04:09:26.846Z,83.44
2022-09-01T04:10:26.798Z,83.33
2022-09-01T04:11:26.775Z,81.71
2022-09-01T04:12:26.722Z,81.48
2022-09-01T04:13:26.684Z,80.87
2022-09-01T04:14:26.646Z,81.84
2022-09-01T04:15:26.607Z,81.27
2022-09-01T04:16:26.604Z,80.77
2022-09-01T04:17:30.472Z,80.87
2022-09-01T04:18:26.490Z,80.73
2022-09-01T04:19:26.514Z,79.41
2022-09-01T04:20:26.415Z,78.91
2022-09-01T04:21:26.375Z,81.03
2022-09-01T04:22:26.354Z,80.83
2022-09-01T04:23:26.300Z,79.32
2022-09-01T04:24:26.267Z,79.41
2022-09-01T04:25:26.223Z,78.77
2022-09-01T04:26:26.186Z,79.17
2022-09-01T04:27:26.148Z,79.08
2022-09-01T04:28:26.125Z,79.08
2022-09-01T04:29:26.071Z,79.99
2022-09-01T04:30:26.033Z,78.57
2022-09-01T04:31:26.050Z,78.37
2022-09-01T04:32:25.964Z,79.68
2022-09-01T04:33:25.918Z,78.77
2022-09-01T04:34:25.902Z,78.88
2022-09-01T04:35:25.843Z,78.57
2022-09-01T04:36:25.814Z,78.47
2022-09-01T04:37:25.766Z,78.97
2022-09-01T04:38:25.727Z,79.08
2022-09-01T04:39:25.689Z,78.71
2022-09-01T04:40:25.701Z,78.37
2022-09-01T04:41:25.615Z,78.47
2022-09-01T04:42:25.585Z,77.66
2022-09-01T04:43:25.537Z,78.37
2022-09-01T04:44:25.502Z,77.83
2022-09-01T04:45:25.512Z,77.42
2022-09-01T04:46:25.435Z,77.62
2022-09-01T04:47:25.385Z,78.03
2022-09-01T04:48:25.345Z,78.74
2022-09-01T04:49:25.309Z,77.73
2022-09-01T04:50:25.293Z,77.42
2022-09-01T04:51:25.242Z,77.12
2022-09-01T04:52:25.194Z,76.98
2022-09-01T04:53:27.632Z,77.08
2022-09-01T04:54:25.115Z,77.08
2022-09-01T04:55:25.089Z,76.98
2022-09-01T04:56:25.040Z,76.88
2022-09-01T04:57:25.017Z,76.48
2022-09-01T04:58:25.192Z,77.19
2022-09-01T04:59:24.928Z,77.49
2022-09-01T05:00:24.996Z,78.23
2022-09-01T05:01:24.945Z,77.19
2022-09-01T05:02:24.848Z,76.78
2022-09-01T05:03:25.759Z,76.88
2022-09-01T05:04:24.736Z,77.49
2022-09-01T05:05:34.290Z,76.88
2022-09-01T05:06:24.661Z,77.19
2022-09-01T05:07:24.634Z,77.08
2022-09-01T05:08:24.913Z,76.48
2022-09-01T05:09:24.546Z,76.28
2022-09-01T05:10:24.507Z,76.28
2022-09-01T05:11:24.469Z,76.38
2022-09-01T05:12:24.433Z,76.18
2022-09-01T05:13:24.404Z,76.14
2022-09-01T05:14:24.353Z,76.28
2022-09-01T05:15:24.317Z,76.58
2022-09-01T05:16:25.596Z,76.18
2022-09-01T05:17:24.243Z,76.18
2022-09-01T05:18:24.204Z,75.98
2022-09-01T05:19:24.173Z,75.43
2022-09-01T05:20:24.128Z,75.94
2022-09-01T05:21:24.090Z,76.14
2022-09-01T05:22:24.051Z,75.54
2022-09-01T05:23:24.013Z,75.54
2022-09-01T05:24:23.986Z,76.04
2022-09-01T05:25:23.936Z,75.23
2022-09-01T05:26:23.902Z,75.34
2022-09-01T05:27:23.866Z,75.43
2022-09-01T05:28:23.826Z,75.43
2022-09-01T05:29:23.788Z,75.23
2022-09-01T05:30:23.760Z,74.69
2022-09-01T05:31:23.766Z,75.10
2022-09-01T05:32:23.672Z,74.19
2022-09-01T05:33:23.631Z,74.29
2022-09-01T05:34:23.597Z,74.19
2022-09-01T05:35:23.556Z,74.49
2022-09-01T05:36:23.541Z,74.59
2022-09-01T05:37:23.480Z,73.79
2022-09-01T05:38:23.445Z,74.59
2022-09-01T05:39:23.406Z,74.76
2022-09-01T05:40:23.447Z,74.55
2022-09-01T05:41:23.344Z,74.76
2022-09-01T05:42:23.293Z,74.46
2022-09-01T05:43:23.256Z,73.95
2022-09-01T05:44:23.216Z,72.91
2022-09-01T05:45:23.179Z,72.27
2022-09-01T05:46:23.155Z,70.66
2022-09-01T05:47:23.113Z,66.72
2022-09-01T05:48:23.069Z,64.29
2022-09-01T05:49:23.031Z,61.68
2022-09-01T05:50:23.004Z,57.73
2022-09-01T05:51:43.427Z,58.50
2022-09-01T05:52:22.915Z,57.82
2022-09-01T05:53:22.901Z,56.02
2022-09-01T05:54:22.842Z,55.13
2022-09-01T05:55:22.809Z,55.95
2022-09-01T05:56:22.768Z,56.55
2022-09-01T05:57:35.415Z,56.70
2022-09-01T05:58:22.696Z,55.25
2022-09-01T05:59:23.812Z,54.43
2022-09-01T06:00:22.623Z,53.80
2022-09-01T06:01:22.590Z,53.88
2022-09-01T06:02:22.615Z,54.03
2022-09-01T06:03:22.911Z,53.01
2022-09-01T06:04:22.492Z,51.67
2022-09-01T06:05:22.444Z,52.76
2022-09-01T06:06:22.408Z,51.60
2022-09-01T06:07:25.394Z,50.46
2022-09-01T06:08:22.337Z,49.02
2022-09-01T06:09:22.317Z,49.72
2022-09-01T06:10:22.268Z,49.18
2022-09-01T06:11:22.235Z,46.76
2022-09-01T06:12:22.207Z,47.11
2022-09-01T06:13:22.251Z,45.02
2022-09-01T06:14:22.131Z,46.94
2022-09-01T06:15:22.107Z,46.37
2022-09-01T06:16:22.135Z,46.84
2022-09-01T06:17:22.113Z,45.29
2022-09-01T06:18:21.991Z,45.16
2022-09-01T06:19:21.960Z,47.06
2022-09-01T06:20:21.935Z,45.36
2022-09-01T06:21:21.896Z,45.84
2022-09-01T06:22:21.853Z,47.54
2022-09-01T06:23:21.868Z,47.25
2022-09-01T06:24:21.783Z,47.42
2022-09-01T06:25:21.753Z,47.38
2022-09-01T06:26:21.728Z,45.67
2022-09-01T06:27:21.688Z,45.53
2022-09-01T06:28:21.648Z,46.09
2022-09-01T06:29:21.630Z,47.34
2022-09-01T06:30:24.162Z,47.81
2022-09-01T06:31:21.635Z,46.70
2022-09-01T06:32:21.524Z,47.03
2022-09-01T06:33:21.481Z,45.21
2022-09-01T06:34:21.449Z,44.13
2022-09-01T06:35:21.425Z,44.74
2022-09-01T06:36:21.378Z,45.29
2022-09-01T06:37:21.357Z,44.38
2022-09-01T06:38:21.312Z,44.68
2022-09-01T06:39:21.280Z,43.01
2022-09-01T06:40:21.277Z,44.68
2022-09-01T06:41:21.212Z,42.67
2022-09-01T06:42:21.204Z,43.46
2022-09-01T06:43:21.325Z,43.77
2022-09-01T06:44:21.110Z,42.18
2022-09-01T06:45:21.080Z,44.36
2022-09-01T06:46:21.080Z,44.40
2022-09-01T06:47:21.014Z,45.35
2022-09-01T06:48:20.978Z,42.25
2022-09-01T06:49:20.977Z,42.82
2022-09-01T06:51:21.903Z,43.74
2022-09-01T06:52:20.867Z,40.58
2022-09-01T06:53:36.085Z,41.74
2022-09-01T06:54:21.284Z,43.02
2022-09-01T06:55:20.762Z,42.85
2022-09-01T06:56:20.714Z,43.87
2022-09-01T06:58:21.344Z,44.72
2022-09-01T06:59:20.619Z,44.19
2022-09-01T07:00:20.596Z,43.85
2022-09-01T07:01:20.621Z,44.38
2022-09-01T07:02:22.410Z,44.19
2022-09-01T07:03:20.661Z,42.61
2022-09-01T07:04:20.452Z,44.72
2022-09-01T07:08:20.567Z,46.17
2022-09-01T07:09:22.191Z,45.24
2022-09-01T07:10:21.375Z,45.39
2022-09-01T07:12:07.218Z,46.43
2022-09-01T07:12:27.982Z,42.94
2022-09-01T07:13:20.159Z,42.55
2022-09-01T07:14:20.124Z,41.45
2022-09-01T07:16:38.547Z,43.68
2022-09-01T07:18:20.128Z,43.98
2022-09-01T07:19:19.968Z,47.57
2022-09-01T07:20:27.632Z,47.79
2022-09-01T07:23:19.851Z,45.43
2022-09-01T07:24:19.806Z,45.51
2022-09-01T07:25:19.773Z,44.74
2022-09-01T07:26:27.085Z,45.38
2022-09-01T07:27:19.716Z,45.78
2022-09-01T07:28:19.805Z,45.78
2022-09-01T07:29:19.669Z,47.41
2022-09-01T07:30:19.616Z,45.09
2022-09-01T07:32:48.391Z,46.06
2022-09-01T07:35:19.475Z,43.84
2022-09-01T07:36:26.961Z,44.96
2022-09-01T07:42:30.244Z,44.36
2022-09-01T07:42:31.492Z,45.95
2022-09-01T07:42:31.771Z,45.14
2022-09-01T07:43:19.279Z,49.20
2022-09-01T07:44:19.177Z,46.48
2022-09-01T07:45:27.061Z,46.98
2022-09-01T07:47:20.198Z,46.26
2022-09-01T07:49:52.594Z,45.32
2022-09-01T07:50:40.325Z,47.13
2022-09-01T07:51:36.132Z,47.17
2022-09-01T07:52:22.643Z,47.27
2022-09-01T07:53:19.116Z,48.53
2022-09-01T07:54:18.852Z,46.83
2022-09-01T07:55:18.835Z,45.94
2022-09-01T07:56:18.790Z,45.84
2022-09-01T07:57:18.774Z,45.84
2022-09-01T07:58:18.733Z,45.84
2022-09-01T07:59:18.699Z,45.86
2022-09-01T08:00:18.664Z,47.34
2022-09-01T08:01:18.687Z,47.54
2022-09-01T08:02:18.691Z,47.05
2022-09-01T08:03:18.658Z,47.99
2022-09-01T08:04:18.553Z,45.13
2022-09-01T08:05:18.509Z,46.33
2022-09-01T08:06:18.488Z,46.28
2022-09-01T08:07:18.454Z,46.20
2022-09-01T08:08:18.847Z,46.67
2022-09-01T08:09:25.308Z,47.03
2022-09-01T08:10:20.098Z,46.44
2022-09-01T08:11:25.213Z,46.33
2022-09-01T08:12:18.290Z,46.75
2022-09-01T08:13:18.959Z,48.51
2022-09-01T08:14:18.450Z,45.89
2022-09-01T08:16:18.574Z,47.00
2022-09-01T08:17:34.322Z,46.09
2022-09-01T08:18:18.191Z,44.89
2022-09-01T08:19:18.077Z,44.25
2022-09-01T08:20:18.099Z,44.87
2022-09-01T08:21:18.011Z,44.10
2022-09-01T08:22:17.979Z,44.98
2022-09-01T08:23:17.950Z,46.70
2022-09-01T08:24:17.923Z,44.61
2022-09-01T08:25:20.765Z,44.39
2022-09-01T08:26:17.873Z,45.30
2022-09-01T08:27:17.828Z,44.79
2022-09-01T08:28:26.425Z,46.15
2022-09-01T08:29:17.775Z,42.95
2022-09-01T08:30:17.830Z,45.96
2022-09-01T08:31:17.783Z,45.99
2022-09-01T08:32:17.675Z,41.25
2022-09-01T08:33:17.646Z,41.45
2022-09-01T08:34:17.613Z,41.85
2022-09-01T08:35:17.589Z,42.26
2022-09-01T08:36:22.873Z,42.60
2022-09-01T08:37:17.536Z,44.42
2022-09-01T08:38:17.575Z,44.29
2022-09-01T08:39:17.468Z,43.15
2022-09-01T08:40:17.567Z,43.27
2022-09-01T08:41:17.410Z,42.32
2022-09-01T08:42:17.373Z,44.29
2022-09-01T08:43:17.401Z,42.18
2022-09-01T08:44:17.328Z,41.57
2022-09-01T08:45:17.279Z,41.08
2022-09-01T08:46:17.288Z,41.77
2022-09-01T08:47:17.470Z,41.38
2022-09-01T08:49:25.753Z,40.80
2022-09-01T08:50:17.147Z,40.86
2022-09-01T08:51:19.988Z,41.08
2022-09-01T08:52:17.068Z,42.93
2022-09-01T08:53:17.048Z,41.16
2022-09-01T08:54:18.058Z,40.58
2022-09-01T08:55:16.984Z,41.16
2022-09-01T08:56:16.968Z,38.47
2022-09-01T08:57:16.919Z,38.64
2022-09-01T08:58:16.893Z,41.08
2022-09-01T08:59:16.870Z,39.40
2022-09-01T09:00:16.828Z,37.66
2022-09-01T09:01:17.797Z,41.85
2022-09-01T09:02:16.812Z,41.71
2022-09-01T09:03:17.114Z,37.34
2022-09-01T09:04:16.710Z,40.37
2022-09-01T09:05:16.682Z,37.49
2022-09-01T09:06:16.653Z,37.55
2022-09-01T09:07:16.623Z,39.58
2022-09-01T09:08:16.604Z,38.39
2022-09-01T09:09:16.565Z,40.88
2022-09-01T09:10:16.546Z,40.58
2022-09-01T09:11:16.504Z,39.50
2022-09-01T09:12:16.565Z,39.36
2022-09-01T09:13:16.486Z,39.99
2022-09-01T09:14:16.423Z,39.72
2022-09-01T09:15:16.392Z,40.70
2022-09-01T09:16:16.467Z,39.70
2022-09-01T09:17:16.399Z,38.79
2022-09-01T09:18:20.080Z,39.04
2022-09-01T09:19:16.361Z,39.60
2022-09-01T09:20:16.522Z,36.07
2022-09-01T09:21:16.202Z,36.96
2022-09-01T09:22:16.173Z,36.66
2022-09-01T09:23:16.147Z,36.96
2022-09-01T09:24:21.597Z,36.55
2022-09-01T09:25:19.296Z,38.32
2022-09-01T09:26:21.903Z,36.92
2022-09-01T09:27:16.377Z,36.33
2022-09-01T09:28:15.993Z,36.55
2022-09-01T09:29:15.972Z,36.57
2022-09-01T09:30:15.947Z,38.06
2022-09-01T09:31:17.892Z,37.13
2022-09-01T09:32:35.261Z,40.17
2022-09-01T09:33:46.560Z,38.77
2022-09-01T09:34:15.816Z,38.79
2022-09-01T09:35:15.784Z,35.85
2022-09-01T09:36:15.768Z,38.21
2022-09-01T09:37:15.729Z,37.68
2022-09-01T09:38:15.695Z,38.06
2022-09-01T09:39:16.661Z,36.36
2022-09-01T09:40:15.709Z,38.64
2022-09-01T09:41:18.863Z,36.17
2022-09-01T09:42:15.591Z,36.76
2022-09-01T09:43:15.599Z,37.34
2022-09-01T09:44:15.531Z,37.22
2022-09-01T09:45:15.495Z,36.70
2022-09-01T09:46:24.651Z,38.82
2022-09-01T09:47:40.365Z,39.54
2022-09-01T09:48:15.407Z,40.09
2022-09-01T09:49:15.366Z,41.06
2022-09-01T09:50:15.337Z,38.57
2022-09-01T09:51:15.309Z,37.27
2022-09-01T09:52:16.457Z,37.66
2022-09-01T09:53:15.248Z,38.18
2022-09-01T09:54:15.236Z,40.23
2022-09-01T09:55:15.187Z,36.96
2022-09-01T09:56:15.155Z,38.24
2022-09-01T09:57:15.137Z,35.88
2022-09-01T09:58:15.096Z,36.70
2022-09-01T09:59:15.071Z,37.60
2022-09-01T10:00:15.053Z,38.49
2022-09-01T10:01:15.094Z,37.27
2022-09-01T10:02:14.980Z,37.51
2022-09-01T10:03:14.970Z,37.54
2022-09-01T10:04:14.966Z,39.14
2022-09-01T10:05:14.902Z,38.81
2022-09-01T10:06:14.870Z,38.61
2022-09-01T10:07:14.828Z,37.88
2022-09-01T10:08:14.800Z,37.27
2022-09-01T10:09:14.768Z,37.29
2022-09-01T10:10:14.741Z,38.39
2022-09-01T10:11:14.722Z,41.85
2022-09-01T10:12:14.682Z,38.56
2022-09-01T10:13:19.058Z,37.32
2022-09-01T10:14:26.112Z,39.87
2022-09-01T10:15:14.590Z,40.43
2022-09-01T10:16:14.627Z,38.81
2022-09-01T10:17:15.915Z,38.73
2022-09-01T10:18:20.599Z,37.66
2022-09-01T10:19:16.171Z,38.26
2022-09-01T10:20:14.458Z,39.73
2022-09-01T10:21:14.412Z,36.76
2022-09-01T10:22:15.245Z,37.45
2022-09-01T10:23:15.275Z,37.66
2022-09-01T10:24:20.399Z,37.49
2022-09-01T10:25:14.287Z,38.28
2022-09-01T10:26:14.260Z,39.25
2022-09-01T10:27:14.947Z,37.35
2022-09-01T10:28:20.662Z,40.21
2022-09-01T10:29:15.822Z,37.91
2022-09-01T10:30:18.749Z,37.09
2022-09-01T10:31:14.171Z,37.62
2022-09-01T10:32:31.817Z,38.94
2022-09-01T10:33:19.896Z,38.86
2022-09-01T10:34:14.033Z,39.46
2022-09-01T10:35:14.545Z,40.70
2022-09-01T10:36:13.964Z,38.31
2022-09-01T10:37:15.998Z,38.55
2022-09-01T10:38:13.946Z,39.73
2022-09-01T10:39:13.865Z,38.61
2022-09-01T10:40:13.885Z,38.89
2022-09-01T10:41:15.853Z,38.69
2022-09-01T10:42:13.774Z,39.56
2022-09-01T10:43:13.741Z,38.47
2022-09-01T10:44:13.719Z,37.90
2022-09-01T10:45:14.201Z,38.81
2022-09-01T10:46:15.899Z,39.72
2022-09-01T10:47:14.670Z,40.15
2022-09-01T10:48:13.586Z,41.55
2022-09-01T10:49:13.555Z,42.72
2022-09-01T10:50:13.543Z,40.86
2022-09-01T10:51:18.440Z,39.85
2022-09-01T10:52:16.177Z,42.11
2022-09-01T10:53:17.281Z,39.60
2022-09-01T10:54:13.404Z,40.98
2022-09-01T10:55:13.368Z,39.48
2022-09-01T10:56:23.388Z,41.61
2022-09-01T10:57:13.306Z,40.51
2022-09-01T10:59:31.058Z,39.52
2022-09-01T11:00:40.063Z,39.11
2022-09-01T11:01:15.502Z,37.51
2022-09-01T11:02:34.943Z,36.45
2022-09-01T11:04:13.229Z,37.73
2022-09-01T11:05:13.100Z,37.63
2022-09-01T11:06:22.483Z,37.55
2022-09-01T11:07:13.128Z,38.91
2022-09-01T11:08:16.001Z,38.58
2022-09-01T11:09:12.937Z,36.23
2022-09-01T11:10:31.480Z,37.01
2022-09-01T11:11:12.884Z,38.09
2022-09-01T11:12:12.850Z,37.48
2022-09-01T11:13:12.818Z,35.41
2022-09-01T11:14:12.788Z,36.90
2022-09-01T11:15:12.785Z,37.53
2022-09-01T11:16:12.777Z,38.64
2022-09-01T11:17:12.750Z,37.14
2022-09-01T11:18:13.332Z,37.27
2022-09-01T11:19:16.104Z,37.72
2022-09-01T11:20:12.608Z,39.42
2022-09-01T11:21:12.898Z,41.28
2022-09-01T11:22:13.116Z,41.43
2022-09-01T11:23:12.519Z,41.39
2022-09-01T11:24:12.493Z,39.68
2022-09-01T11:25:12.978Z,36.82
2022-09-01T11:26:20.120Z,38.14
2022-09-01T11:27:12.419Z,37.96
2022-09-01T11:28:12.367Z,38.67
2022-09-01T11:29:12.336Z,37.51
2022-09-01T11:30:12.318Z,38.73
2022-09-01T11:31:12.277Z,38.41
2022-09-01T11:32:12.310Z,38.89
2022-09-01T11:33:12.215Z,41.46
2022-09-01T11:34:12.208Z,37.11
2022-09-01T11:35:12.984Z,39.76
2022-09-01T11:36:12.124Z,37.47
2022-09-01T11:37:12.111Z,37.78
2022-09-01T11:38:12.066Z,39.00
2022-09-01T11:39:12.036Z,41.20
2022-09-01T11:40:12.072Z,39.50
2022-09-01T11:41:12.080Z,39.87
2022-09-01T11:42:11.947Z,38.96
2022-09-01T11:43:12.505Z,40.64
2022-09-01T11:44:11.889Z,37.47
2022-09-01T11:45:11.901Z,39.56
2022-09-01T11:46:11.925Z,38.71
2022-09-01T11:47:14.340Z,39.87
2022-09-01T11:48:11.772Z,39.84
2022-09-01T11:49:11.742Z,36.57
2022-09-01T11:50:11.727Z,39.52
2022-09-01T11:51:14.490Z,36.76
2022-09-01T11:52:11.759Z,36.96
2022-09-01T11:53:11.626Z,37.15
2022-09-01T11:54:11.590Z,36.96
2022-09-01T11:55:11.562Z,37.96
2022-09-01T11:56:11.543Z,38.43
2022-09-01T11:57:11.507Z,37.26
2022-09-01T11:58:15.702Z,38.26
2022-09-01T11:59:11.443Z,38.96
2022-09-01T12:00:11.427Z,37.70
2022-09-01T12:01:11.398Z,37.60
2022-09-01T12:02:11.404Z,38.90
2022-09-01T12:03:11.443Z,39.91
2022-09-01T12:04:11.299Z,38.82
2022-09-01T12:05:11.270Z,38.37
2022-09-01T12:06:11.251Z,39.43
2022-09-01T12:07:11.228Z,41.02
2022-09-01T12:08:11.177Z,40.64
2022-09-01T12:09:11.146Z,41.85
2022-09-01T12:10:11.117Z,41.99
2022-09-01T12:11:11.100Z,42.43
2022-09-01T12:12:11.061Z,41.73
2022-09-01T12:13:11.022Z,42.43
2022-09-01T12:14:11.824Z,44.41
2022-09-01T12:15:10.958Z,42.80
2022-09-01T12:16:19.175Z,41.97
2022-09-01T12:17:10.957Z,43.73
2022-09-01T12:18:10.863Z,41.91
2022-09-01T12:19:10.831Z,39.22
2022-09-01T12:20:10.799Z,41.28
2022-09-01T12:21:10.766Z,40.17
2022-09-01T12:22:10.751Z,37.78
2022-09-01T12:23:10.705Z,41.51
2022-09-01T12:24:10.672Z,37.87
2022-09-01T12:25:10.641Z,38.06
2022-09-01T12:26:10.612Z,39.50
2022-09-01T12:27:10.609Z,38.94
2022-09-01T12:28:11.123Z,41.38
2022-09-01T12:29:10.517Z,42.44
2022-09-01T12:30:10.498Z,42.13
2022-09-01T12:31:10.458Z,40.72
2022-09-01T12:32:10.450Z,41.33
2022-09-01T12:33:25.712Z,40.82
2022-09-01T12:34:10.378Z,40.33
2022-09-01T12:35:11.662Z,40.82
2022-09-01T12:36:10.302Z,40.82
2022-09-01T12:37:10.271Z,41.22
2022-09-01T12:38:10.244Z,41.52
2022-09-01T12:39:10.211Z,40.70
2022-09-01T12:40:10.242Z,41.24
2022-09-01T12:41:10.187Z,41.83
2022-09-01T12:42:10.119Z,42.30
2022-09-01T12:43:10.091Z,40.74
2022-09-01T12:44:10.060Z,42.99
2022-09-01T12:45:10.038Z,41.91
2022-09-01T12:46:10.041Z,40.11
2022-09-01T12:47:09.968Z,41.52
2022-09-01T12:48:09.940Z,41.00
2022-09-01T12:49:09.988Z,40.80
2022-09-01T12:50:09.892Z,39.70
2022-09-01T12:51:09.853Z,39.89
2022-09-01T12:52:09.823Z,42.66
2022-09-01T12:53:09.791Z,40.56
2022-09-01T12:54:09.765Z,41.43
2022-09-01T12:55:09.733Z,39.65
2022-09-01T12:56:09.717Z,39.46
2022-09-01T12:57:09.675Z,40.07
2022-09-01T12:58:09.648Z,41.06
2022-09-01T12:59:15.520Z,41.16
2022-09-01T13:00:09.591Z,42.07
2022-09-01T13:01:16.259Z,40.70
2022-09-01T13:02:09.595Z,40.72
2022-09-01T13:03:09.522Z,41.25
2022-09-01T13:04:09.482Z,41.47
2022-09-01T13:05:09.450Z,42.27
2022-09-01T13:06:09.420Z,42.17
2022-09-01T13:07:09.403Z,41.36
2022-09-01T13:08:09.361Z,41.65
2022-09-01T13:09:10.250Z,43.04
2022-09-01T13:10:09.303Z,41.36
2022-09-01T13:11:11.207Z,42.64
2022-09-01T13:12:09.243Z,42.44
2022-09-01T13:13:09.225Z,42.25